createdAt,value
2023-04-03T00:00:35.971Z,6.30
2023-04-03T00:05:40.385Z,6.20
2023-04-03T00:10:43.508Z,6.30
2023-04-03T00:15:46.489Z,6.30
2023-04-03T00:20:51.324Z,6.20
2023-04-03T00:25:54.736Z,6.30
2023-04-03T00:30:57.649Z,6.60
2023-04-03T00:36:06.764Z,6.80
2023-04-03T00:41:10.027Z,7.10
2023-04-03T00:46:12.987Z,6.80
2023-04-03T00:51:22.055Z,6.60
2023-04-03T00:56:28.938Z,6.80
2023-04-03T01:01:32.742Z,7.10
2023-04-03T01:06:39.181Z,7.20
2023-04-03T01:11:44.244Z,7.40
2023-04-03T01:16:54.981Z,7.10
2023-04-03T01:22:21.783Z,7.30
2023-04-03T01:27:24.713Z,6.60
2023-04-03T01:32:29.154Z,6.30
2023-04-03T01:37:32.132Z,6.10
2023-04-03T01:42:35.367Z,6.10
2023-04-03T01:47:39.784Z,5.90
2023-04-03T01:52:42.830Z,5.80
2023-04-03T01:57:45.765Z,5.80
2023-04-03T02:02:50.098Z,6.00
2023-04-03T02:07:53.148Z,6.00
2023-04-03T02:12:56.584Z,6.20
2023-04-03T02:18:00.940Z,6.10
2023-04-03T02:23:04.259Z,6.20
2023-04-03T02:28:07.361Z,6.20
2023-04-03T02:33:11.979Z,6.30
2023-04-03T02:38:15.758Z,6.30
2023-04-03T02:43:18.866Z,6.20
2023-04-03T02:48:24.574Z,6.10
2023-04-03T02:53:27.513Z,5.90
2023-04-03T02:58:30.734Z,6.10
2023-04-03T03:03:37.168Z,6.20
2023-04-03T03:08:40.583Z,6.50
2023-04-03T03:13:43.570Z,6.70
2023-04-03T03:18:50.981Z,6.70
2023-04-03T03:23:53.870Z,6.70
2023-04-03T03:28:56.816Z,6.20
2023-04-03T03:34:01.184Z,6.30
2023-04-03T03:39:04.368Z,6.40
2023-04-03T03:44:07.432Z,6.50
2023-04-03T03:49:12.499Z,6.60
2023-04-03T03:54:16.762Z,7.00
2023-04-03T03:59:20.305Z,7.00
2023-04-03T04:04:25.644Z,7.00
2023-04-03T04:09:29.069Z,6.80
2023-04-03T04:14:32.373Z,6.60
2023-04-03T04:19:38.096Z,6.40
2023-04-03T04:24:41.467Z,6.60
2023-04-03T04:29:45.715Z,6.50
2023-04-03T04:34:50.717Z,6.50
2023-04-03T04:39:53.915Z,6.80
2023-04-03T04:44:57.006Z,6.80
2023-04-03T04:50:01.917Z,6.50
2023-04-03T04:55:06.337Z,6.10
2023-04-03T05:00:10.854Z,6.20
2023-04-03T05:05:15.687Z,6.20
2023-04-03T05:10:18.899Z,6.00
2023-04-03T05:15:23.235Z,5.80
2023-04-03T05:20:28.277Z,5.90
2023-04-03T05:25:31.501Z,5.80
2023-04-03T05:30:35.601Z,5.40
2023-04-03T05:35:42.576Z,5.50
2023-04-03T05:40:48.874Z,5.00
2023-04-03T05:45:53.463Z,5.20
2023-04-03T05:51:00.457Z,5.00
2023-04-03T05:56:03.618Z,4.80
2023-04-03T06:01:10.112Z,4.60
2023-04-03T06:06:16.510Z,4.80
2023-04-03T06:11:19.816Z,4.60
2023-04-03T06:16:23.209Z,4.50
2023-04-03T06:21:27.680Z,4.50
2023-04-03T06:26:30.751Z,4.50
2023-04-03T06:31:33.916Z,4.60
2023-04-03T06:36:38.714Z,4.70
2023-04-03T06:41:41.646Z,4.70
2023-04-03T06:46:46.375Z,4.70
2023-04-03T06:51:50.873Z,4.70
2023-04-03T06:56:53.993Z,4.90
2023-04-03T07:01:57.733Z,5.00
2023-04-03T07:07:02.243Z,4.80
2023-04-03T07:12:05.717Z,4.80
2023-04-03T07:17:08.840Z,4.90
2023-04-03T07:22:14.013Z,5.10
2023-04-03T07:27:17.060Z,5.10
2023-04-03T07:32:20.242Z,5.40
2023-04-03T07:37:24.575Z,5.50
2023-04-03T07:42:28.712Z,5.40
2023-04-03T07:47:34.708Z,6.00
2023-04-03T07:52:39.608Z,6.30
2023-04-03T07:57:50.818Z,6.30
2023-04-03T08:02:54.925Z,6.30
2023-04-03T08:07:59.442Z,6.30
2023-04-03T08:13:05.740Z,6.60
2023-04-03T08:18:08.968Z,6.90
2023-04-03T08:23:20.297Z,6.90
2023-04-03T08:28:26.155Z,7.10
2023-04-03T08:33:29.660Z,7.10
2023-04-03T08:38:40.742Z,7.40
2023-04-03T08:44:00.631Z,7.20
2023-04-03T08:49:04.544Z,7.30
2023-04-03T08:54:21.038Z,7.80
2023-04-03T08:59:58.890Z,7.50
2023-04-03T09:05:15.036Z,7.70
2023-04-03T09:10:30.078Z,7.90
2023-04-03T09:15:38.952Z,7.70
2023-04-03T09:21:33.670Z,7.40
2023-04-03T09:26:51.982Z,7.20
2023-04-03T09:32:08.282Z,7.20
2023-04-03T09:37:11.263Z,7.40
2023-04-03T09:42:16.282Z,7.70
2023-04-03T09:47:25.049Z,7.70
2023-04-03T09:52:29.940Z,7.70
2023-04-03T09:57:35.113Z,7.70
2023-04-03T10:02:41.506Z,8.10
2023-04-03T10:07:51.676Z,7.90
2023-04-03T10:13:10.576Z,8.20
2023-04-03T10:18:33.604Z,8.00
2023-04-03T10:23:44.881Z,8.10
2023-04-03T10:28:53.424Z,8.00
2023-04-03T10:34:07.047Z,7.90
2023-04-03T10:39:26.343Z,8.50
2023-04-03T10:44:38.848Z,8.50
2023-04-03T10:49:59.377Z,8.60
2023-04-03T10:55:16.131Z,8.70
2023-04-03T11:00:35.877Z,8.40
2023-04-03T11:05:45.922Z,8.80
2023-04-03T11:10:51.878Z,8.70
2023-04-03T11:15:56.467Z,8.40
2023-04-03T11:21:06.006Z,8.10
2023-04-03T11:26:13.122Z,8.50
2023-04-03T11:31:32.029Z,8.40
2023-04-03T11:36:42.730Z,8.30
2023-04-03T11:42:00.191Z,8.40
2023-04-03T11:47:09.111Z,8.50
2023-04-03T11:52:14.152Z,8.50
2023-04-03T11:57:56.779Z,8.20
2023-04-03T12:03:00.391Z,8.50
2023-04-03T12:08:27.660Z,8.80
2023-04-03T12:13:33.602Z,8.80
2023-04-03T12:18:59.459Z,8.50
2023-04-03T12:24:06.918Z,8.40
2023-04-03T12:29:24.863Z,8.30
2023-04-03T12:34:44.490Z,8.30
2023-04-03T12:39:57.585Z,8.50
2023-04-03T12:45:04.325Z,8.30
2023-04-03T12:50:20.618Z,8.20
2023-04-03T12:55:25.132Z,8.40
2023-04-03T13:00:35.137Z,8.30
2023-04-03T13:05:38.295Z,8.10
2023-04-03T13:10:55.499Z,8.10
2023-04-03T13:15:58.610Z,8.30
2023-04-03T13:21:06.932Z,8.30
2023-04-03T13:26:12.146Z,8.40
2023-04-03T13:31:24.431Z,8.40
2023-04-03T13:36:31.702Z,8.10
2023-04-03T13:41:37.570Z,8.10
2023-04-03T13:46:41.078Z,8.00
2023-04-03T13:51:45.160Z,8.20
2023-04-03T13:56:57.748Z,8.30
2023-04-03T14:02:17.437Z,8.20
2023-04-03T14:07:21.119Z,8.30
2023-04-03T14:12:31.873Z,8.20
2023-04-03T14:17:35.253Z,8.20
2023-04-03T14:22:38.148Z,8.20
2023-04-03T14:27:44.613Z,8.10
2023-04-03T14:32:48.309Z,8.20
2023-04-03T14:37:52.711Z,8.50
2023-04-03T14:42:58.364Z,8.30
2023-04-03T14:48:01.735Z,8.20
2023-04-03T14:53:05.759Z,8.40
2023-04-03T14:58:14.887Z,8.20
2023-04-03T15:03:20.588Z,8.10
2023-04-03T15:08:26.716Z,8.30
2023-04-03T15:13:31.647Z,8.30
2023-04-03T15:18:39.089Z,8.50
2023-04-03T15:23:42.961Z,8.50
2023-04-03T15:28:47.279Z,8.50
2023-04-03T15:33:50.175Z,8.40
2023-04-03T15:38:53.064Z,8.20
2023-04-03T15:43:57.374Z,8.30
2023-04-03T15:49:00.353Z,8.00
2023-04-03T15:54:03.409Z,8.10
2023-04-03T15:59:19.059Z,8.10
2023-04-03T16:04:22.648Z,8.20
2023-04-03T16:09:25.690Z,8.40
2023-04-03T16:14:31.271Z,8.50
2023-04-03T16:19:34.504Z,8.40
2023-04-03T16:24:39.116Z,8.20
2023-04-03T16:29:43.698Z,8.20
2023-04-03T16:34:46.756Z,8.70
2023-04-03T16:39:49.746Z,8.30
2023-04-03T16:44:54.182Z,8.00
2023-04-03T16:49:57.252Z,8.20
2023-04-03T16:55:00.526Z,7.90
2023-04-03T17:00:06.458Z,8.00
2023-04-03T17:05:10.761Z,8.10
2023-04-03T17:10:15.106Z,8.00
2023-04-03T17:15:20.825Z,8.00
2023-04-03T17:20:23.840Z,7.80
2023-04-03T17:25:26.861Z,8.30
2023-04-03T17:30:31.143Z,8.20
2023-04-03T17:35:34.124Z,8.20
2023-04-03T17:40:37.053Z,8.00
2023-04-03T17:45:41.888Z,7.90
2023-04-03T17:50:45.084Z,7.90
2023-04-03T17:55:48.207Z,7.80
2023-04-03T18:00:54.407Z,7.60
2023-04-03T18:05:57.386Z,7.40
2023-04-03T18:11:01.353Z,7.50
2023-04-03T18:16:07.413Z,7.40
2023-04-03T18:21:13.144Z,7.50
2023-04-03T18:26:19.771Z,7.50
2023-04-03T18:31:27.417Z,7.60
2023-04-03T18:36:30.587Z,7.50
2023-04-03T18:41:36.383Z,7.70
2023-04-03T18:46:41.199Z,7.80
2023-04-03T18:51:44.165Z,7.80
2023-04-03T18:57:26.580Z,8.00
2023-04-03T19:02:31.121Z,7.90
2023-04-03T19:07:34.802Z,7.90
2023-04-03T19:12:37.746Z,7.80
2023-04-03T19:17:42.306Z,7.80
2023-04-03T19:22:46.413Z,7.90
2023-04-03T19:27:51.833Z,7.40
2023-04-03T19:32:56.920Z,8.00
2023-04-03T19:38:00.131Z,8.00
2023-04-03T19:43:03.064Z,7.90
2023-04-03T19:48:08.549Z,7.40
2023-04-03T19:53:14.522Z,7.10
2023-04-03T19:58:17.704Z,7.10
2023-04-03T20:03:22.317Z,7.00
2023-04-03T20:08:26.228Z,6.70
2023-04-03T20:13:29.143Z,6.60
2023-04-03T20:18:34.963Z,6.40
2023-04-03T20:23:38.911Z,6.50
2023-04-03T20:28:41.839Z,6.40
2023-04-03T20:33:46.234Z,6.50
2023-04-03T20:38:49.485Z,6.60
2023-04-03T20:43:52.479Z,6.60
2023-04-03T20:48:57.969Z,6.70
2023-04-03T20:54:00.935Z,6.60
2023-04-03T20:59:04.781Z,6.50
2023-04-03T21:04:15.770Z,6.50
2023-04-03T21:09:56.746Z,6.50
2023-04-03T21:15:37.007Z,6.40
2023-04-03T21:20:43.109Z,6.30
2023-04-03T21:25:47.296Z,6.30
2023-04-03T21:30:50.542Z,6.30
2023-04-03T21:35:58.558Z,6.10
2023-04-03T21:41:01.542Z,6.10
2023-04-03T21:46:05.589Z,6.00
2023-04-03T21:51:10.999Z,5.90
2023-04-03T21:56:13.965Z,5.90
2023-04-03T22:01:17.749Z,5.70
2023-04-03T22:06:21.999Z,5.80
2023-04-03T22:11:27.639Z,5.70
2023-04-03T22:16:30.636Z,5.70
2023-04-03T22:21:34.957Z,5.50
2023-04-03T22:26:39.508Z,5.20
2023-04-03T22:31:42.940Z,5.20
2023-04-03T22:36:47.234Z,5.30
2023-04-03T22:41:50.403Z,5.30
2023-04-03T22:46:53.547Z,5.30
2023-04-03T22:51:57.792Z,5.20
2023-04-03T22:57:00.690Z,5.00
2023-04-03T23:02:04.320Z,4.90
2023-04-03T23:07:08.586Z,5.00
2023-04-03T23:12:11.475Z,5.00
2023-04-03T23:17:14.377Z,4.90
2023-04-03T23:22:18.631Z,4.90
2023-04-03T23:27:21.558Z,4.80
2023-04-03T23:32:24.484Z,4.70
2023-04-03T23:37:28.733Z,4.60
2023-04-03T23:42:32.017Z,4.60
2023-04-03T23:47:34.982Z,4.50
2023-04-03T23:52:39.265Z,4.50
2023-04-03T23:57:42.945Z,4.60
